createdAt,value
2022-10-23T00:04:20.927Z,93.8
2022-10-23T00:14:20.915Z,93.8
2022-10-23T00:24:20.964Z,94
2022-10-23T00:34:20.967Z,94.1
2022-10-23T00:44:21.003Z,94.3
2022-10-23T00:54:25.099Z,94.3
2022-10-23T01:04:21.035Z,94.4
2022-10-23T01:14:21.036Z,94.7
2022-10-23T01:24:21.071Z,94.7
2022-10-23T01:34:21.076Z,94.8
2022-10-23T01:44:21.116Z,95
2022-10-23T01:54:21.107Z,95.4
2022-10-23T02:04:21.151Z,95.6
2022-10-23T02:54:21.254Z,95.3
2022-10-23T03:04:21.240Z,95.1
2022-10-23T03:14:21.321Z,94.9
2022-10-23T03:24:21.268Z,94.9
2022-10-23T03:34:21.314Z,94.8
2022-10-23T03:44:21.307Z,94.8
2022-10-23T04:04:21.381Z,94.5
2022-10-23T04:24:21.407Z,94.5
2022-10-23T04:34:21.471Z,94.6
2022-10-23T04:44:21.466Z,94.6
2022-10-23T05:04:21.494Z,94.2
2022-10-23T05:14:22.895Z,94
2022-10-23T05:44:21.572Z,93.9
2022-10-23T05:54:21.590Z,94
2022-10-23T06:04:21.607Z,94
2022-10-23T06:24:21.651Z,93.7
2022-10-23T06:34:21.647Z,93.3
2022-10-23T06:44:21.694Z,92.5
2022-10-23T07:04:21.720Z,91.3
2022-10-23T07:14:21.720Z,90.3
2022-10-23T07:24:21.780Z,89.4
2022-10-23T07:34:21.752Z,89
2022-10-23T07:44:24.296Z,88.4
2022-10-23T08:04:21.845Z,88.2
2022-10-23T08:14:21.800Z,86.9
2022-10-23T08:24:21.871Z,84.6
2022-10-23T08:54:21.909Z,82.5
2022-10-23T09:04:21.922Z,83
2022-10-23T09:24:21.982Z,80.4
2022-10-23T09:34:21.979Z,78.2
2022-10-23T09:44:22.011Z,80
2022-10-23T09:54:21.996Z,80.8
2022-10-23T10:24:22.069Z,81.5
2022-10-23T10:34:22.052Z,82
2022-10-23T10:44:22.101Z,82.4
2022-10-23T10:54:22.090Z,82.7
2022-10-23T11:04:22.150Z,83
2022-10-23T11:14:22.142Z,83.3
2022-10-23T11:24:22.214Z,84.6
2022-10-23T11:44:22.206Z,85
2022-10-23T12:14:22.261Z,81.9
2022-10-23T12:24:22.240Z,81.6
2022-10-23T12:34:22.288Z,81
2022-10-23T12:54:22.303Z,80.8
2022-10-23T13:34:22.376Z,81
2022-10-23T13:54:22.484Z,81.6
2022-10-23T14:24:22.455Z,82.6
2022-10-23T14:34:22.475Z,83
2022-10-23T14:44:22.503Z,83
2022-10-23T14:54:22.489Z,83.5
2022-10-23T15:14:22.571Z,84.5
2022-10-23T15:24:22.536Z,85.2
2022-10-23T15:34:22.586Z,85.3
2022-10-23T15:44:22.595Z,85.6
2022-10-23T15:54:22.624Z,85.9
2022-10-23T16:04:22.603Z,85.9
2022-10-23T16:14:22.643Z,85.9
2022-10-23T16:24:22.661Z,86
2022-10-23T16:54:22.761Z,90.9
2022-10-23T17:34:22.795Z,98
2022-10-23T17:44:22.767Z,98.5
2022-10-23T17:54:22.821Z,98.9
2022-10-23T18:04:22.807Z,99.1
2022-10-23T18:14:25.146Z,99.3
2022-10-23T18:24:22.846Z,99.4
2022-10-23T18:34:22.880Z,99.5
2022-10-23T18:54:22.919Z,99.6
2022-10-23T19:04:22.903Z,99.7
2022-10-23T20:04:23.054Z,99.8
2022-10-23T20:14:23.060Z,99.8
2022-10-23T20:24:23.083Z,99.8
2022-10-23T20:34:23.083Z,99.7
2022-10-23T20:44:23.130Z,99.6
2022-10-23T20:54:23.134Z,99.6
2022-10-23T21:04:23.195Z,99.5
2022-10-23T21:14:23.172Z,99.4
2022-10-23T21:24:23.185Z,99.4
2022-10-23T21:34:23.170Z,99.3
2022-10-23T21:44:23.257Z,99.3
2022-10-23T21:54:23.225Z,99.2
2022-10-23T22:14:23.285Z,99
2022-10-23T22:24:23.326Z,98.7
2022-10-23T22:44:23.309Z,97.4
2022-10-23T22:54:23.388Z,97.1
2022-10-23T23:04:37.436Z,97
2022-10-23T23:14:24.459Z,96.6
2022-10-23T23:34:23.426Z,96.4
2022-10-23T23:54:23.459Z,96.1
